sensor_id;sensor_type;location;lat;lon;timestamp;pressure;altitude;pressure_sealevel;temperature;humidity
75166;BME280;63747;48.042;10.088;2023-05-10T00:00:40;94589.38;;;12.36;67.62
75166;BME280;63747;48.042;10.088;2023-05-10T00:03:41;94585.69;;;12.37;67.40
75166;BME280;63747;48.042;10.088;2023-05-10T00:06:41;94588.56;;;12.35;67.67
75166;BME280;63747;48.042;10.088;2023-05-10T00:09:42;94584.84;;;12.30;68.00
75166;BME280;63747;48.042;10.088;2023-05-10T00:12:42;94588.91;;;12.25;68.04
75166;BME280;63747;48.042;10.088;2023-05-10T00:15:43;94578.03;;;12.14;69.12
75166;BME280;63747;48.042;10.088;2023-05-10T00:18:43;94580.44;;;12.02;70.09
75166;BME280;63747;48.042;10.088;2023-05-10T00:21:44;94578.75;;;11.94;70.08
75166;BME280;63747;48.042;10.088;2023-05-10T00:24:44;94582.22;;;11.95;69.46
75166;BME280;63747;48.042;10.088;2023-05-10T00:27:45;94581.22;;;11.96;69.47
75166;BME280;63747;48.042;10.088;2023-05-10T00:30:45;94575.91;;;11.96;69.15
75166;BME280;63747;48.042;10.088;2023-05-10T00:33:46;94579.56;;;11.95;69.06
75166;BME280;63747;48.042;10.088;2023-05-10T00:36:46;94578.75;;;11.94;69.09
75166;BME280;63747;48.042;10.088;2023-05-10T00:39:47;94575.28;;;11.94;69.21
75166;BME280;63747;48.042;10.088;2023-05-10T00:42:47;94577.72;;;11.95;69.23
75166;BME280;63747;48.042;10.088;2023-05-10T00:45:48;94577.94;;;11.94;69.05
75166;BME280;63747;48.042;10.088;2023-05-10T00:48:48;94579.69;;;11.80;69.99
75166;BME280;63747;48.042;10.088;2023-05-10T00:51:49;94572.72;;;11.79;69.82
75166;BME280;63747;48.042;10.088;2023-05-10T00:54:51;94571.69;;;11.74;70.10
75166;BME280;63747;48.042;10.088;2023-05-10T00:57:52;94575.78;;;11.76;70.51
75166;BME280;63747;48.042;10.088;2023-05-10T01:00:54;94576.97;;;11.67;71.01
75166;BME280;63747;48.042;10.088;2023-05-10T01:03:55;94576.94;;;11.60;71.13
75166;BME280;63747;48.042;10.088;2023-05-10T01:06:56;94578.81;;;11.66;70.85
75166;BME280;63747;48.042;10.088;2023-05-10T01:09:57;94578.56;;;11.61;71.05
75166;BME280;63747;48.042;10.088;2023-05-10T01:12:57;94579.75;;;11.59;71.30
75166;BME280;63747;48.042;10.088;2023-05-10T01:15:59;94576.53;;;11.63;71.69
75166;BME280;63747;48.042;10.088;2023-05-10T01:19:03;94588.56;;;11.59;70.92
75166;BME280;63747;48.042;10.088;2023-05-10T01:25:16;94582.59;;;11.57;71.07
75166;BME280;63747;48.042;10.088;2023-05-10T01:31:40;94591.94;;;11.47;71.71
75166;BME280;63747;48.042;10.088;2023-05-10T01:34:53;94592.66;;;11.34;72.47
75166;BME280;63747;48.042;10.088;2023-05-10T01:41:05;94594.78;;;11.45;72.70
75166;BME280;63747;48.042;10.088;2023-05-10T01:47:17;94593.13;;;11.44;71.95
75166;BME280;63747;48.042;10.088;2023-05-10T01:50:22;94594.16;;;11.43;72.13
75166;BME280;63747;48.042;10.088;2023-05-10T01:53:24;94597.19;;;11.40;72.47
75166;BME280;63747;48.042;10.088;2023-05-10T01:56:26;94598.28;;;11.46;72.18
75166;BME280;63747;48.042;10.088;2023-05-10T01:59:28;94598.41;;;11.37;72.43
75166;BME280;63747;48.042;10.088;2023-05-10T02:02:30;94601.25;;;11.36;72.83
75166;BME280;63747;48.042;10.088;2023-05-10T02:05:33;94607.81;;;11.40;72.75
75166;BME280;63747;48.042;10.088;2023-05-10T02:08:34;94612.09;;;11.41;72.48
75166;BME280;63747;48.042;10.088;2023-05-10T02:11:39;94620.06;;;11.41;72.48
75166;BME280;63747;48.042;10.088;2023-05-10T02:14:41;94610.63;;;11.32;72.96
75166;BME280;63747;48.042;10.088;2023-05-10T02:17:42;94616.53;;;11.34;72.63
75166;BME280;63747;48.042;10.088;2023-05-10T02:20:44;94610.03;;;11.36;72.31
75166;BME280;63747;48.042;10.088;2023-05-10T02:23:45;94628.19;;;11.33;73.04
75166;BME280;63747;48.042;10.088;2023-05-10T02:26:46;94635.88;;;11.28;72.38
75166;BME280;63747;48.042;10.088;2023-05-10T02:29:48;94636.91;;;11.27;72.56
75166;BME280;63747;48.042;10.088;2023-05-10T02:32:50;94642.34;;;11.19;72.85
75166;BME280;63747;48.042;10.088;2023-05-10T02:35:51;94638.63;;;11.13;73.65
75166;BME280;63747;48.042;10.088;2023-05-10T02:38:52;94641.00;;;11.08;73.19
75166;BME280;63747;48.042;10.088;2023-05-10T02:41:53;94646.72;;;11.05;73.42
75166;BME280;63747;48.042;10.088;2023-05-10T02:44:56;94642.03;;;11.07;73.08
75166;BME280;63747;48.042;10.088;2023-05-10T02:48:00;94647.91;;;11.02;73.47
75166;BME280;63747;48.042;10.088;2023-05-10T02:51:01;94645.88;;;11.04;73.45
75166;BME280;63747;48.042;10.088;2023-05-10T02:54:19;94649.16;;;11.06;73.32
75166;BME280;63747;48.042;10.088;2023-05-10T02:57:22;94648.28;;;10.99;74.04
75166;BME280;63747;48.042;10.088;2023-05-10T03:00:25;94651.31;;;10.96;73.56
75166;BME280;63747;48.042;10.088;2023-05-10T03:03:26;94650.47;;;10.96;73.73
75166;BME280;63747;48.042;10.088;2023-05-10T03:06:26;94656.25;;;10.99;73.17
75166;BME280;63747;48.042;10.088;2023-05-10T03:09:28;94652.38;;;11.02;73.24
75166;BME280;63747;48.042;10.088;2023-05-10T03:12:41;94658.91;;;10.99;73.01
75166;BME280;63747;48.042;10.088;2023-05-10T03:18:56;94666.72;;;11.07;72.84
75166;BME280;63747;48.042;10.088;2023-05-10T03:22:03;94668.34;;;11.08;72.91
75166;BME280;63747;48.042;10.088;2023-05-10T03:25:07;94666.72;;;11.07;73.02
75166;BME280;63747;48.042;10.088;2023-05-10T03:28:11;94670.38;;;11.06;72.94
75166;BME280;63747;48.042;10.088;2023-05-10T03:31:12;94665.09;;;11.06;72.88
75166;BME280;63747;48.042;10.088;2023-05-10T03:34:12;94671.63;;;11.10;72.90
75166;BME280;63747;48.042;10.088;2023-05-10T03:37:13;94675.88;;;11.05;72.70
75166;BME280;63747;48.042;10.088;2023-05-10T03:40:13;94685.50;;;10.91;73.31
75166;BME280;63747;48.042;10.088;2023-05-10T03:43:14;94684.53;;;10.92;73.16
75166;BME280;63747;48.042;10.088;2023-05-10T03:46:14;94689.75;;;10.85;73.52
75166;BME280;63747;48.042;10.088;2023-05-10T03:49:15;94683.91;;;10.75;74.27
75166;BME280;63747;48.042;10.088;2023-05-10T03:52:15;94689.09;;;10.83;73.87
75166;BME280;63747;48.042;10.088;2023-05-10T03:55:16;94696.63;;;10.80;74.15
75166;BME280;63747;48.042;10.088;2023-05-10T03:58:16;94681.81;;;10.71;73.84
75166;BME280;63747;48.042;10.088;2023-05-10T04:01:18;94688.41;;;10.75;73.81
75166;BME280;63747;48.042;10.088;2023-05-10T04:04:18;94690.69;;;10.78;73.68
75166;BME280;63747;48.042;10.088;2023-05-10T04:07:20;94695.63;;;10.81;73.59
75166;BME280;63747;48.042;10.088;2023-05-10T04:10:21;94693.97;;;10.80;73.72
75166;BME280;63747;48.042;10.088;2023-05-10T04:13:21;94691.50;;;10.78;73.79
75166;BME280;63747;48.042;10.088;2023-05-10T04:16:22;94697.38;;;10.74;73.72
75166;BME280;63747;48.042;10.088;2023-05-10T04:19:23;94693.78;;;10.67;73.77
75166;BME280;63747;48.042;10.088;2023-05-10T04:22:23;94697.00;;;10.62;73.78
75166;BME280;63747;48.042;10.088;2023-05-10T04:25:24;94704.41;;;10.67;73.56
75166;BME280;63747;48.042;10.088;2023-05-10T04:28:24;94702.94;;;10.64;73.60
75166;BME280;63747;48.042;10.088;2023-05-10T04:31:25;94696.56;;;10.58;74.14
75166;BME280;63747;48.042;10.088;2023-05-10T04:34:27;94706.41;;;10.65;73.89
75166;BME280;63747;48.042;10.088;2023-05-10T04:37:28;94702.66;;;10.74;73.49
75166;BME280;63747;48.042;10.088;2023-05-10T04:40:29;94705.03;;;10.69;73.96
75166;BME280;63747;48.042;10.088;2023-05-10T04:43:29;94711.44;;;10.74;73.68
75166;BME280;63747;48.042;10.088;2023-05-10T04:46:30;94715.81;;;10.82;73.28
75166;BME280;63747;48.042;10.088;2023-05-10T04:49:30;94720.75;;;10.85;73.07
75166;BME280;63747;48.042;10.088;2023-05-10T04:52:31;94717.97;;;10.93;73.13
75166;BME280;63747;48.042;10.088;2023-05-10T04:55:32;94717.66;;;11.03;72.56
75166;BME280;63747;48.042;10.088;2023-05-10T04:58:32;94719.31;;;11.04;72.42
75166;BME280;63747;48.042;10.088;2023-05-10T05:01:33;94725.06;;;11.07;72.39
75166;BME280;63747;48.042;10.088;2023-05-10T05:04:33;94726.50;;;11.10;72.02
75166;BME280;63747;48.042;10.088;2023-05-10T05:07:34;94724.06;;;11.08;72.04
75166;BME280;63747;48.042;10.088;2023-05-10T05:10:35;94727.25;;;11.19;72.11
75166;BME280;63747;48.042;10.088;2023-05-10T05:13:35;94729.97;;;11.25;71.55
75166;BME280;63747;48.042;10.088;2023-05-10T05:16:35;94742.00;;;11.28;71.49
75166;BME280;63747;48.042;10.088;2023-05-10T05:19:36;94734.66;;;11.30;71.59
75166;BME280;63747;48.042;10.088;2023-05-10T05:22:37;94730.66;;;11.34;71.29
75166;BME280;63747;48.042;10.088;2023-05-10T05:25:37;94737.97;;;11.32;71.39
75166;BME280;63747;48.042;10.088;2023-05-10T05:28:38;94740.25;;;11.35;71.86
75166;BME280;63747;48.042;10.088;2023-05-10T05:31:38;94738.41;;;11.35;71.71
75166;BME280;63747;48.042;10.088;2023-05-10T05:34:39;94751.88;;;11.34;71.74
75166;BME280;63747;48.042;10.088;2023-05-10T05:37:39;94742.63;;;11.30;71.80
75166;BME280;63747;48.042;10.088;2023-05-10T05:40:40;94751.34;;;11.24;72.03
75166;BME280;63747;48.042;10.088;2023-05-10T05:43:40;94748.34;;;11.27;71.86
75166;BME280;63747;48.042;10.088;2023-05-10T05:46:41;94755.28;;;11.28;71.72
75166;BME280;63747;48.042;10.088;2023-05-10T05:49:41;94753.50;;;11.35;71.66
75166;BME280;63747;48.042;10.088;2023-05-10T05:52:42;94753.13;;;11.38;71.54
75166;BME280;63747;48.042;10.088;2023-05-10T05:55:52;94748.53;;;11.47;71.51
75166;BME280;63747;48.042;10.088;2023-05-10T05:58:53;94759.19;;;11.53;71.48
75166;BME280;63747;48.042;10.088;2023-05-10T06:01:54;94758.13;;;11.48;71.45
75166;BME280;63747;48.042;10.088;2023-05-10T06:04:54;94756.50;;;11.47;71.74
75166;BME280;63747;48.042;10.088;2023-05-10T06:07:55;94761.78;;;11.47;71.60
75166;BME280;63747;48.042;10.088;2023-05-10T06:10:56;94762.34;;;11.42;71.65
75166;BME280;63747;48.042;10.088;2023-05-10T06:13:56;94763.84;;;11.51;71.67
75166;BME280;63747;48.042;10.088;2023-05-10T06:16:57;94762.59;;;11.68;71.30
75166;BME280;63747;48.042;10.088;2023-05-10T06:19:59;94779.72;;;11.87;71.06
75166;BME280;63747;48.042;10.088;2023-05-10T06:23:00;94778.59;;;11.96;70.94
75166;BME280;63747;48.042;10.088;2023-05-10T06:26:00;94783.75;;;12.05;70.73
75166;BME280;63747;48.042;10.088;2023-05-10T06:29:01;94786.41;;;12.05;70.94
75166;BME280;63747;48.042;10.088;2023-05-10T06:32:01;94782.47;;;12.22;70.57
75166;BME280;63747;48.042;10.088;2023-05-10T06:35:02;94782.34;;;12.37;70.56
75166;BME280;63747;48.042;10.088;2023-05-10T06:38:02;94785.63;;;12.39;70.36
75166;BME280;63747;48.042;10.088;2023-05-10T06:41:03;94788.81;;;12.56;70.15
75166;BME280;63747;48.042;10.088;2023-05-10T06:44:03;94793.78;;;12.65;70.01
75166;BME280;63747;48.042;10.088;2023-05-10T06:47:04;94789.09;;;12.74;69.84
75166;BME280;63747;48.042;10.088;2023-05-10T06:50:05;94794.88;;;12.77;69.48
75166;BME280;63747;48.042;10.088;2023-05-10T06:53:06;94784.28;;;12.91;69.45
75166;BME280;63747;48.042;10.088;2023-05-10T06:56:07;94796.94;;;13.23;68.91
75166;BME280;63747;48.042;10.088;2023-05-10T06:59:08;94790.81;;;13.29;68.45
75166;BME280;63747;48.042;10.088;2023-05-10T07:02:08;94798.38;;;13.32;68.30
75166;BME280;63747;48.042;10.088;2023-05-10T07:05:09;94801.28;;;13.38;68.33
75166;BME280;63747;48.042;10.088;2023-05-10T07:08:09;94800.88;;;13.41;68.04
75166;BME280;63747;48.042;10.088;2023-05-10T07:11:10;94804.59;;;13.53;67.96
75166;BME280;63747;48.042;10.088;2023-05-10T07:14:10;94798.25;;;13.60;67.66
75166;BME280;63747;48.042;10.088;2023-05-10T07:17:11;94799.91;;;13.68;67.65
75166;BME280;63747;48.042;10.088;2023-05-10T07:20:12;94799.91;;;13.75;67.38
75166;BME280;63747;48.042;10.088;2023-05-10T07:23:12;94796.44;;;13.74;67.16
75166;BME280;63747;48.042;10.088;2023-05-10T07:26:13;94798.69;;;13.77;67.06
75166;BME280;63747;48.042;10.088;2023-05-10T07:29:14;94801.97;;;13.73;67.04
75166;BME280;63747;48.042;10.088;2023-05-10T07:32:15;94804.81;;;13.65;66.94
75166;BME280;63747;48.042;10.088;2023-05-10T07:35:16;94807.28;;;13.73;66.52
75166;BME280;63747;48.042;10.088;2023-05-10T07:38:16;94803.81;;;13.79;66.15
75166;BME280;63747;48.042;10.088;2023-05-10T07:41:17;94806.47;;;13.72;66.02
75166;BME280;63747;48.042;10.088;2023-05-10T07:44:17;94809.13;;;13.72;66.11
75166;BME280;63747;48.042;10.088;2023-05-10T07:47:20;94808.56;;;13.83;66.18
75166;BME280;63747;48.042;10.088;2023-05-10T07:50:20;94811.03;;;13.98;65.58
75166;BME280;63747;48.042;10.088;2023-05-10T07:53:21;94810.59;;;13.95;65.68
75166;BME280;63747;48.042;10.088;2023-05-10T07:56:22;94812.22;;;13.89;65.17
75166;BME280;63747;48.042;10.088;2023-05-10T07:59:24;94813.88;;;13.77;64.41
75166;BME280;63747;48.042;10.088;2023-05-10T08:02:25;94815.03;;;13.61;64.65
75166;BME280;63747;48.042;10.088;2023-05-10T08:05:25;94813.16;;;13.42;65.13
75166;BME280;63747;48.042;10.088;2023-05-10T08:08:26;94815.81;;;13.42;65.17
75166;BME280;63747;48.042;10.088;2023-05-10T08:11:26;94822.00;;;13.49;65.13
75166;BME280;63747;48.042;10.088;2023-05-10T08:14:28;94820.38;;;13.61;64.95
75166;BME280;63747;48.042;10.088;2023-05-10T08:17:28;94827.38;;;13.75;64.71
75166;BME280;63747;48.042;10.088;2023-05-10T08:20:29;94818.16;;;13.78;64.39
75166;BME280;63747;48.042;10.088;2023-05-10T08:23:30;94822.28;;;14.00;64.30
75166;BME280;63747;48.042;10.088;2023-05-10T08:26:30;94823.34;;;14.26;64.32
75166;BME280;63747;48.042;10.088;2023-05-10T08:29:31;94826.03;;;14.32;64.17
75166;BME280;63747;48.042;10.088;2023-05-10T08:32:31;94825.19;;;14.65;63.77
75166;BME280;63747;48.042;10.088;2023-05-10T08:35:32;94819.41;;;14.61;63.68
75166;BME280;63747;48.042;10.088;2023-05-10T08:38:34;94826.81;;;14.73;63.75
75166;BME280;63747;48.042;10.088;2023-05-10T08:41:35;94822.81;;;15.02;63.69
75166;BME280;63747;48.042;10.088;2023-05-10T08:44:39;94821.97;;;15.14;63.15
75166;BME280;63747;48.042;10.088;2023-05-10T08:47:39;94819.75;;;15.05;62.37
75166;BME280;63747;48.042;10.088;2023-05-10T08:50:41;94820.19;;;14.82;62.88
75166;BME280;63747;48.042;10.088;2023-05-10T08:53:43;94824.31;;;14.91;62.87
75166;BME280;63747;48.042;10.088;2023-05-10T08:56:44;94829.28;;;14.61;62.02
75166;BME280;63747;48.042;10.088;2023-05-10T08:59:44;94823.94;;;14.54;62.47
75166;BME280;63747;48.042;10.088;2023-05-10T09:02:45;94826.59;;;14.61;62.33
75166;BME280;63747;48.042;10.088;2023-05-10T09:05:46;94831.94;;;14.67;61.87
75166;BME280;63747;48.042;10.088;2023-05-10T09:08:47;94831.13;;;14.54;61.41
75166;BME280;63747;48.042;10.088;2023-05-10T09:11:48;94832.16;;;14.53;62.12
75166;BME280;63747;48.042;10.088;2023-05-10T09:14:49;94835.84;;;14.65;60.82
75166;BME280;63747;48.042;10.088;2023-05-10T09:17:51;94837.25;;;14.67;61.29
75166;BME280;63747;48.042;10.088;2023-05-10T09:20:51;94828.22;;;14.75;60.81
75166;BME280;63747;48.042;10.088;2023-05-10T09:23:52;94833.56;;;14.75;61.01
75166;BME280;63747;48.042;10.088;2023-05-10T09:26:54;94829.41;;;14.99;61.07
75166;BME280;63747;48.042;10.088;2023-05-10T09:29:56;94830.56;;;15.23;60.33
75166;BME280;63747;48.042;10.088;2023-05-10T09:32:58;94834.56;;;14.87;59.56
75166;BME280;63747;48.042;10.088;2023-05-10T09:36:06;94837.88;;;14.63;60.42
75166;BME280;63747;48.042;10.088;2023-05-10T09:39:07;94838.53;;;14.52;60.34
75166;BME280;63747;48.042;10.088;2023-05-10T09:42:08;94844.47;;;14.40;60.28
75166;BME280;63747;48.042;10.088;2023-05-10T09:45:09;94841.00;;;14.40;60.57
75166;BME280;63747;48.042;10.088;2023-05-10T09:48:09;94840.38;;;14.51;59.89
75166;BME280;63747;48.042;10.088;2023-05-10T09:51:10;94839.34;;;14.59;60.26
75166;BME280;63747;48.042;10.088;2023-05-10T09:54:15;94844.66;;;14.79;60.13
75166;BME280;63747;48.042;10.088;2023-05-10T09:57:22;94839.84;;;15.07;59.67
75166;BME280;63747;48.042;10.088;2023-05-10T10:00:23;94834.69;;;15.19;59.56
75166;BME280;63747;48.042;10.088;2023-05-10T10:03:23;94833.28;;;14.96;58.38
75166;BME280;63747;48.042;10.088;2023-05-10T10:06:24;94840.22;;;15.11;58.87
75166;BME280;63747;48.042;10.088;2023-05-10T10:09:25;94833.03;;;15.18;59.20
75166;BME280;63747;48.042;10.088;2023-05-10T10:12:26;94831.53;;;15.42;59.02
75166;BME280;63747;48.042;10.088;2023-05-10T10:15:26;94832.16;;;15.37;58.82
75166;BME280;63747;48.042;10.088;2023-05-10T10:18:27;94837.09;;;15.40;59.40
75166;BME280;63747;48.042;10.088;2023-05-10T10:21:28;94834.88;;;15.24;59.56
75166;BME280;63747;48.042;10.088;2023-05-10T10:24:29;94834.31;;;15.02;58.74
75166;BME280;63747;48.042;10.088;2023-05-10T10:27:47;94837.78;;;15.03;59.38
75166;BME280;63747;48.042;10.088;2023-05-10T10:30:49;94832.47;;;14.96;59.34
75166;BME280;63747;48.042;10.088;2023-05-10T10:37:05;94839.91;;;14.81;59.49
75166;BME280;63747;48.042;10.088;2023-05-10T10:40:27;94846.28;;;14.73;59.62
75166;BME280;63747;48.042;10.088;2023-05-10T10:43:27;94842.22;;;14.51;60.08
75166;BME280;63747;48.042;10.088;2023-05-10T10:46:28;94846.75;;;14.44;60.59
75166;BME280;63747;48.042;10.088;2023-05-10T10:49:30;94850.84;;;14.46;61.03
75166;BME280;63747;48.042;10.088;2023-05-10T10:55:47;94845.22;;;13.95;62.37
75166;BME280;63747;48.042;10.088;2023-05-10T10:58:51;94855.88;;;13.95;63.10
75166;BME280;63747;48.042;10.088;2023-05-10T11:01:53;94873.00;;;13.52;62.68
75166;BME280;63747;48.042;10.088;2023-05-10T11:04:53;94875.69;;;12.76;63.18
75166;BME280;63747;48.042;10.088;2023-05-10T11:07:55;94872.88;;;12.29;64.60
75166;BME280;63747;48.042;10.088;2023-05-10T11:14:06;94879.78;;;12.23;64.76
75166;BME280;63747;48.042;10.088;2023-05-10T11:17:22;94883.88;;;12.25;65.04
75166;BME280;63747;48.042;10.088;2023-05-10T11:20:22;94888.38;;;12.25;65.30
75166;BME280;63747;48.042;10.088;2023-05-10T11:23:30;94888.50;;;12.17;65.32
75166;BME280;63747;48.042;10.088;2023-05-10T11:26:34;94882.16;;;12.18;65.02
75166;BME280;63747;48.042;10.088;2023-05-10T11:29:35;94885.50;;;12.27;65.03
75166;BME280;63747;48.042;10.088;2023-05-10T11:32:36;94893.22;;;12.43;64.82
75166;BME280;63747;48.042;10.088;2023-05-10T11:35:38;94888.75;;;12.22;65.25
75166;BME280;63747;48.042;10.088;2023-05-10T11:38:39;94887.75;;;12.02;65.73
75166;BME280;63747;48.042;10.088;2023-05-10T11:41:39;94888.47;;;11.95;66.13
75166;BME280;63747;48.042;10.088;2023-05-10T11:44:40;94894.66;;;11.81;65.95
75166;BME280;63747;48.042;10.088;2023-05-10T11:47:41;94892.31;;;11.71;66.80
75166;BME280;63747;48.042;10.088;2023-05-10T11:50:44;94895.63;;;11.59;66.92
75166;BME280;63747;48.042;10.088;2023-05-10T11:53:44;94914.41;;;11.57;67.02
75166;BME280;63747;48.042;10.088;2023-05-10T11:56:45;94900.25;;;11.50;67.23
75166;BME280;63747;48.042;10.088;2023-05-10T11:59:46;94905.81;;;11.55;66.75
75166;BME280;63747;48.042;10.088;2023-05-10T12:02:47;94900.31;;;11.57;67.24
75166;BME280;63747;48.042;10.088;2023-05-10T12:05:47;94910.88;;;11.71;67.02
75166;BME280;63747;48.042;10.088;2023-05-10T12:08:48;94917.16;;;11.64;66.74
75166;BME280;63747;48.042;10.088;2023-05-10T12:11:55;94912.66;;;11.64;67.13
75166;BME280;63747;48.042;10.088;2023-05-10T12:14:56;94904.84;;;11.78;66.87
75166;BME280;63747;48.042;10.088;2023-05-10T12:17:57;94917.25;;;12.07;66.48
75166;BME280;63747;48.042;10.088;2023-05-10T12:21:02;94917.66;;;12.32;66.19
75166;BME280;63747;48.042;10.088;2023-05-10T12:24:03;94916.75;;;12.46;65.90
75166;BME280;63747;48.042;10.088;2023-05-10T12:27:05;94920.97;;;12.34;66.07
75166;BME280;63747;48.042;10.088;2023-05-10T12:30:08;94922.72;;;12.27;66.35
75166;BME280;63747;48.042;10.088;2023-05-10T12:33:09;94924.25;;;12.14;66.45
75166;BME280;63747;48.042;10.088;2023-05-10T12:36:11;94921.72;;;12.28;66.80
75166;BME280;63747;48.042;10.088;2023-05-10T12:39:12;94930.19;;;12.38;66.43
75166;BME280;63747;48.042;10.088;2023-05-10T12:42:12;94931.63;;;12.62;66.08
75166;BME280;63747;48.042;10.088;2023-05-10T12:45:13;94932.00;;;12.59;66.52
75166;BME280;63747;48.042;10.088;2023-05-10T12:48:13;94932.63;;;12.61;66.16
75166;BME280;63747;48.042;10.088;2023-05-10T12:51:14;94935.88;;;12.56;66.20
75166;BME280;63747;48.042;10.088;2023-05-10T12:54:17;94941.75;;;12.51;65.76
75166;BME280;63747;48.042;10.088;2023-05-10T12:57:17;94935.00;;;12.28;65.91
75166;BME280;63747;48.042;10.088;2023-05-10T13:00:18;94934.25;;;12.34;65.94
75166;BME280;63747;48.042;10.088;2023-05-10T13:03:18;94926.47;;;12.60;65.95
75166;BME280;63747;48.042;10.088;2023-05-10T13:06:19;94925.22;;;12.84;65.62
75166;BME280;63747;48.042;10.088;2023-05-10T13:09:19;94908.13;;;13.00;65.11
75166;BME280;63747;48.042;10.088;2023-05-10T13:12:21;94909.50;;;13.17;64.67
75166;BME280;63747;48.042;10.088;2023-05-10T13:15:21;94920.47;;;13.36;64.40
75166;BME280;63747;48.042;10.088;2023-05-10T13:18:22;94921.13;;;13.44;64.16
75166;BME280;63747;48.042;10.088;2023-05-10T13:21:24;94921.47;;;13.34;64.33
75166;BME280;63747;48.042;10.088;2023-05-10T13:24:25;94923.53;;;13.39;64.43
75166;BME280;63747;48.042;10.088;2023-05-10T13:27:25;94922.16;;;13.50;63.87
75166;BME280;63747;48.042;10.088;2023-05-10T13:30:26;94920.53;;;13.49;63.83
75166;BME280;63747;48.042;10.088;2023-05-10T13:33:26;94913.44;;;13.69;63.83
75166;BME280;63747;48.042;10.088;2023-05-10T13:36:27;94915.28;;;13.75;63.35
75166;BME280;63747;48.042;10.088;2023-05-10T13:39:27;94914.91;;;13.85;63.42
75166;BME280;63747;48.042;10.088;2023-05-10T13:42:30;94915.53;;;13.94;63.51
75166;BME280;63747;48.042;10.088;2023-05-10T13:45:33;94910.84;;;14.09;63.21
75166;BME280;63747;48.042;10.088;2023-05-10T13:48:33;94901.69;;;14.25;63.29
75166;BME280;63747;48.042;10.088;2023-05-10T13:51:34;94903.94;;;14.34;63.15
75166;BME280;63747;48.042;10.088;2023-05-10T13:54:38;94903.56;;;14.37;62.79
75166;BME280;63747;48.042;10.088;2023-05-10T13:57:39;94905.41;;;14.30;62.83
75166;BME280;63747;48.042;10.088;2023-05-10T14:00:39;94900.91;;;14.37;62.72
75166;BME280;63747;48.042;10.088;2023-05-10T14:03:40;94899.88;;;14.45;62.80
75166;BME280;63747;48.042;10.088;2023-05-10T14:06:40;94901.72;;;14.38;62.60
75166;BME280;63747;48.042;10.088;2023-05-10T14:09:41;94906.81;;;14.33;62.61
75166;BME280;63747;48.042;10.088;2023-05-10T14:12:42;94909.00;;;14.16;63.09
75166;BME280;63747;48.042;10.088;2023-05-10T14:15:42;94908.16;;;13.96;62.93
75166;BME280;63747;48.042;10.088;2023-05-10T14:18:43;94907.78;;;13.99;63.16
75166;BME280;63747;48.042;10.088;2023-05-10T14:21:43;94913.47;;;13.76;61.08
75166;BME280;63747;48.042;10.088;2023-05-10T14:24:44;94909.66;;;13.50;61.59
75166;BME280;63747;48.042;10.088;2023-05-10T14:27:46;94913.63;;;13.26;62.57
75166;BME280;63747;48.042;10.088;2023-05-10T14:30:47;94914.72;;;13.04;62.57
75166;BME280;63747;48.042;10.088;2023-05-10T14:33:48;94919.91;;;12.84;63.10
75166;BME280;63747;48.042;10.088;2023-05-10T14:36:48;94912.97;;;12.55;63.03
75166;BME280;63747;48.042;10.088;2023-05-10T14:39:49;94916.59;;;12.47;63.31
75166;BME280;63747;48.042;10.088;2023-05-10T14:42:50;94918.19;;;12.20;63.54
75166;BME280;63747;48.042;10.088;2023-05-10T14:45:52;94918.41;;;12.04;63.44
75166;BME280;63747;48.042;10.088;2023-05-10T14:48:52;94919.72;;;11.93;63.94
75166;BME280;63747;48.042;10.088;2023-05-10T14:51:53;94919.31;;;12.11;63.69
75166;BME280;63747;48.042;10.088;2023-05-10T14:54:53;94920.44;;;12.23;63.79
75166;BME280;63747;48.042;10.088;2023-05-10T14:57:54;94921.69;;;12.49;63.66
75166;BME280;63747;48.042;10.088;2023-05-10T15:00:54;94921.56;;;12.57;63.57
75166;BME280;63747;48.042;10.088;2023-05-10T15:03:55;94929.38;;;12.65;63.73
75166;BME280;63747;48.042;10.088;2023-05-10T15:06:55;94923.78;;;12.82;63.53
75166;BME280;63747;48.042;10.088;2023-05-10T15:09:59;94909.31;;;12.91;63.36
75166;BME280;63747;48.042;10.088;2023-05-10T15:12:59;94916.38;;;13.05;63.04
75166;BME280;63747;48.042;10.088;2023-05-10T15:15:59;94914.84;;;13.17;62.99
75166;BME280;63747;48.042;10.088;2023-05-10T15:19:01;94915.22;;;13.14;62.70
75166;BME280;63747;48.042;10.088;2023-05-10T15:22:01;94914.59;;;13.12;62.85
75166;BME280;63747;48.042;10.088;2023-05-10T15:25:02;94914.63;;;13.19;63.07
75166;BME280;63747;48.042;10.088;2023-05-10T15:28:03;94918.25;;;13.11;62.77
75166;BME280;63747;48.042;10.088;2023-05-10T15:31:04;94922.09;;;13.02;63.27
75166;BME280;63747;48.042;10.088;2023-05-10T15:34:04;94925.41;;;13.11;63.04
75166;BME280;63747;48.042;10.088;2023-05-10T15:37:05;94929.38;;;13.21;62.81
75166;BME280;63747;48.042;10.088;2023-05-10T15:40:06;94923.91;;;13.29;62.56
75166;BME280;63747;48.042;10.088;2023-05-10T15:43:06;94930.09;;;13.37;62.59
75166;BME280;63747;48.042;10.088;2023-05-10T15:46:07;94937.41;;;13.28;62.32
75166;BME280;63747;48.042;10.088;2023-05-10T15:49:07;94937.78;;;13.25;62.40
75166;BME280;63747;48.042;10.088;2023-05-10T15:52:08;94939.19;;;13.21;62.20
75166;BME280;63747;48.042;10.088;2023-05-10T15:55:09;94953.03;;;13.10;62.75
75166;BME280;63747;48.042;10.088;2023-05-10T15:58:11;94942.47;;;12.88;62.69
75166;BME280;63747;48.042;10.088;2023-05-10T16:01:12;94949.31;;;12.76;63.26
75166;BME280;63747;48.042;10.088;2023-05-10T16:04:12;94952.25;;;12.60;63.45
75166;BME280;63747;48.042;10.088;2023-05-10T16:07:13;94961.25;;;12.59;63.38
75166;BME280;63747;48.042;10.088;2023-05-10T16:10:13;94962.47;;;12.56;63.62
75166;BME280;63747;48.042;10.088;2023-05-10T16:13:14;94955.81;;;12.45;63.47